Time;durP1;ratioP1;P1;durP2;ratioP2;P2;SDS_P1;SDS_P2;PMS_P1;PMS_P2;Temp;Humidity;BMP_temperature;BMP_pressure;BME280_temperature;BME280_humidity;BME280_pressure;Samples;Min_cycle;Max_cycle;Signal;HPM_P1;HPM_P2
2021/12/13 00:00:39;;;;;;;25.92;17.95;;;;;;;;;;5037916;28;20025;-73
2021/12/13 00:03:05;;;;;;;30.67;19.85;;;;;;;;;;5036395;28;20021;-75
2021/12/13 00:05:36;;;;;;;19.90;14.77;;;;;;;;;;5036612;28;20040;-73
2021/12/13 00:08:04;;;;;;;20.58;16.48;;;;;;;;;;5035279;28;20132;-74
2021/12/13 00:10:33;;;;;;;18.20;14.05;;;;;;;;;;5036456;28;20040;-73
2021/12/13 00:13:01;;;;;;;14.48;11.27;;;;;;;;;;5036839;28;20032;-77
2021/12/13 00:15:32;;;;;;;14.60;10.55;;;;;;;;;;5035416;28;20667;-74
2021/12/13 00:17:58;;;;;;;15.88;11.57;;;;;;;;;;5036684;28;20555;-74
2021/12/13 00:20:39;;;;;;;11.90;9.52;;;;;;;;;;5037391;28;20383;-74
2021/12/13 00:23:15;;;;;;;16.00;11.50;;;;;;;;;;5036675;28;20079;-75
2021/12/13 00:25:42;;;;;;;46.30;26.25;;;;;;;;;;5036899;28;20548;-75
2021/12/13 00:28:13;;;;;;;32.33;20.27;;;;;;;;;;5050830;28;20487;-74
2021/12/13 00:30:46;;;;;;;15.23;10.65;;;;;;;;;;5055870;28;20111;-74
2021/12/13 00:33:19;;;;;;;14.20;10.77;;;;;;;;;;5056780;28;20048;-75
2021/12/13 00:35:50;;;;;;;15.68;11.07;;;;;;;;;;5056209;28;20032;-74
2021/12/13 00:38:17;;;;;;;13.77;10.48;;;;;;;;;;5066626;28;20029;-76
2021/12/13 00:40:46;;;;;;;13.88;9.45;;;;;;;;;;5077672;28;20027;-76
2021/12/13 00:43:16;;;;;;;15.73;11.32;;;;;;;;;;5059080;28;20486;-75
2021/12/13 00:46:14;;;;;;;15.90;11.48;;;;;;;;;;5076075;28;20026;-76
2021/12/13 00:48:42;;;;;;;13.05;9.38;;;;;;;;;;5030899;28;20551;-76
2021/12/13 00:51:27;;;;;;;9.77;8.05;;;;;;;;;;5076039;28;20028;-74
2021/12/13 00:53:54;;;;;;;14.95;11.95;;;;;;;;;;5057577;28;20054;-75
2021/12/13 00:56:38;;;;;;;10.30;8.00;;;;;;;;;;5075928;28;20012;-74
2021/12/13 00:59:05;;;;;;;10.88;7.95;;;;;;;;;;5057421;28;20036;-74
2021/12/13 01:01:30;;;;;;;14.25;9.77;;;;;;;;;;5057202;28;20024;-75
2021/12/13 01:03:57;;;;;;;15.20;10.88;;;;;;;;;;5075638;28;20016;-74
2021/12/13 01:06:41;;;;;;;22.38;14.65;;;;;;;;;;5075311;28;20023;-74
2021/12/13 01:09:09;;;;;;;27.58;13.52;;;;;;;;;;5075631;28;20034;-74
2021/12/13 01:11:50;;;;;;;24.38;14.50;;;;;;;;;;5075664;28;20103;-74
2021/12/13 01:14:43;;;;;;;25.98;16.40;;;;;;;;;;5075598;28;20115;-74
2021/12/13 01:17:25;;;;;;;16.83;10.90;;;;;;;;;;5071717;28;20482;-76
2021/12/13 01:19:57;;;;;;;42.05;26.38;;;;;;;;;;5076090;28;20028;-74
2021/12/13 01:22:49;;;;;;;34.22;22.42;;;;;;;;;;5075095;28;20425;-75
2021/12/13 01:25:43;;;;;;;18.33;11.98;;;;;;;;;;5075665;28;20024;-74
2021/12/13 01:28:26;;;;;;;16.45;12.10;;;;;;;;;;5074867;28;20020;-75
2021/12/13 01:30:57;;;;;;;8.85;6.30;;;;;;;;;;5076240;28;20032;-75
2021/12/13 01:33:24;;;;;;;5.10;4.28;;;;;;;;;;5075533;28;20487;-74
2021/12/13 01:35:51;;;;;;;7.82;6.32;;;;;;;;;;5074866;28;20020;-75
2021/12/13 01:38:19;;;;;;;9.40;7.60;;;;;;;;;;5057169;28;20024;-73
2021/12/13 01:40:46;;;;;;;7.93;6.22;;;;;;;;;;5076102;28;20035;-74
2021/12/13 01:43:15;;;;;;;6.20;5.10;;;;;;;;;;5058255;28;20439;-74
2021/12/13 01:45:41;;;;;;;7.13;6.28;;;;;;;;;;5056940;28;20115;-75
2021/12/13 01:48:14;;;;;;;24.13;13.75;;;;;;;;;;5074164;28;20107;-73
2021/12/13 01:50:47;;;;;;;13.65;8.75;;;;;;;;;;5074884;28;20032;-74
2021/12/13 01:53:12;;;;;;;11.40;8.30;;;;;;;;;;5058229;28;20032;-75
2021/12/13 01:55:40;;;;;;;7.60;5.95;;;;;;;;;;5057612;28;20035;-75
2021/12/13 01:58:26;;;;;;;8.10;5.82;;;;;;;;;;5075731;28;20070;-75
2021/12/13 02:01:09;;;;;;;4.30;3.65;;;;;;;;;;5075001;28;20040;-75
2021/12/13 02:03:43;;;;;;;5.20;4.22;;;;;;;;;;5074360;28;20035;-75
2021/12/13 02:06:09;;;;;;;4.97;3.45;;;;;;;;;;5074962;28;20122;-75
2021/12/13 02:08:35;;;;;;;3.78;3.10;;;;;;;;;;5074868;28;20153;-75
2021/12/13 02:11:00;;;;;;;5.15;3.80;;;;;;;;;;5074538;28;20028;-74
2021/12/13 02:13:33;;;;;;;4.78;3.60;;;;;;;;;;5057700;28;20028;-74
2021/12/13 02:18:46;;;;;;;8.45;5.63;;;;;;;;;;5074644;28;20578;-73
2021/12/13 02:21:27;;;;;;;4.20;3.05;;;;;;;;;;5075094;28;20031;-74
2021/12/13 02:23:57;;;;;;;11.98;5.85;;;;;;;;;;5056067;28;20069;-73
2021/12/13 02:26:26;;;;;;;13.25;7.10;;;;;;;;;;5075824;28;20656;-73
2021/12/13 02:28:55;;;;;;;16.05;9.05;;;;;;;;;;5075671;28;20073;-74
2021/12/13 02:31:29;;;;;;;13.68;8.25;;;;;;;;;;5074609;28;20032;-74
2021/12/13 02:33:57;;;;;;;23.00;12.20;;;;;;;;;;5074464;28;20107;-75
2021/12/13 02:36:25;;;;;;;18.08;9.15;;;;;;;;;;5056023;28;20447;-72
2021/12/13 02:38:52;;;;;;;14.75;8.02;;;;;;;;;;5075548;28;20020;-74
2021/12/13 02:41:21;;;;;;;10.88;7.20;;;;;;;;;;5079315;28;20024;-75
2021/12/13 02:43:48;;;;;;;11.05;6.72;;;;;;;;;;5079255;28;20406;-74
2021/12/13 02:46:14;;;;;;;9.18;6.32;;;;;;;;;;5078318;28;20023;-73
2021/12/13 02:48:41;;;;;;;13.27;6.95;;;;;;;;;;5060238;28;20028;-73
2021/12/13 02:51:06;;;;;;;12.23;7.57;;;;;;;;;;5077518;28;20032;-74
2021/12/13 02:53:35;;;;;;;19.00;9.98;;;;;;;;;;5079114;28;20042;-77
2021/12/13 02:56:01;;;;;;;10.87;6.03;;;;;;;;;;5078226;28;20038;-75
2021/12/13 02:58:27;;;;;;;7.20;5.78;;;;;;;;;;5078698;28;20471;-75
2021/12/13 03:00:55;;;;;;;8.10;6.38;;;;;;;;;;5059683;28;20031;-73
2021/12/13 03:03:23;;;;;;;7.65;6.07;;;;;;;;;;5078081;28;20490;-73
2021/12/13 03:05:50;;;;;;;6.25;5.53;;;;;;;;;;5079436;28;20024;-74
2021/12/13 03:08:21;;;;;;;5.63;5.03;;;;;;;;;;5078120;28;20016;-73
2021/12/13 03:10:49;;;;;;;9.10;7.32;;;;;;;;;;5078488;28;20020;-74
2021/12/13 03:13:16;;;;;;;12.98;10.00;;;;;;;;;;5077820;28;20031;-73
2021/12/13 03:15:43;;;;;;;21.02;13.48;;;;;;;;;;5077839;28;20495;-74
2021/12/13 03:18:15;;;;;;;31.08;18.85;;;;;;;;;;5078425;28;20020;-75
2021/12/13 03:20:59;;;;;;;22.85;12.90;;;;;;;;;;5078359;28;20023;-74
2021/12/13 03:23:38;;;;;;;25.17;14.93;;;;;;;;;;5077936;28;20020;-74
2021/12/13 03:26:04;;;;;;;20.17;11.30;;;;;;;;;;5077526;28;20024;-76
2021/12/13 03:28:48;;;;;;;14.65;8.25;;;;;;;;;;5059452;28;20031;-76
2021/12/13 03:31:22;;;;;;;17.80;10.90;;;;;;;;;;5039098;28;20115;-75
2021/12/13 03:33:54;;;;;;;18.77;10.73;;;;;;;;;;5057197;28;20100;-76
2021/12/13 03:36:23;;;;;;;14.52;9.23;;;;;;;;;;5057036;28;20024;-73
2021/12/13 03:38:50;;;;;;;11.93;7.10;;;;;;;;;;5057822;28;20095;-72
2021/12/13 03:41:18;;;;;;;7.50;4.35;;;;;;;;;;5058103;28;20333;-74
2021/12/13 03:43:58;;;;;;;4.65;3.55;;;;;;;;;;5057899;28;20028;-74
2021/12/13 03:46:26;;;;;;;6.55;4.10;;;;;;;;;;5038559;28;20032;-75
2021/12/13 03:48:53;;;;;;;7.18;4.97;;;;;;;;;;5056667;28;20020;-74
2021/12/13 03:51:20;;;;;;;22.10;15.13;;;;;;;;;;5056541;28;20468;-73
2021/12/13 03:53:47;;;;;;;16.60;13.57;;;;;;;;;;5038787;28;20033;-74
2021/12/13 03:56:14;;;;;;;10.40;7.80;;;;;;;;;;5057077;28;20043;-73
2021/12/13 03:58:47;;;;;;;5.13;4.63;;;;;;;;;;5035109;28;20053;-74
2021/12/13 04:01:13;;;;;;;8.77;5.35;;;;;;;;;;5018365;28;20033;-73
2021/12/13 04:03:40;;;;;;;3.97;3.28;;;;;;;;;;5036633;28;20029;-74
2021/12/13 04:06:06;;;;;;;5.35;3.92;;;;;;;;;;5037268;28;20029;-74
2021/12/13 04:08:32;;;;;;;8.73;5.40;;;;;;;;;;5036268;28;20028;-73
2021/12/13 04:11:00;;;;;;;8.73;5.72;;;;;;;;;;5019891;28;20029;-74
2021/12/13 04:13:27;;;;;;;7.50;5.38;;;;;;;;;;5019785;28;20029;-73
2021/12/13 04:16:15;;;;;;;14.00;8.60;;;;;;;;;;5036328;28;20032;-73
2021/12/13 04:21:19;;;;;;;13.45;10.45;;;;;;;;;;5036741;28;20083;-74
2021/12/13 04:23:52;;;;;;;13.63;9.75;;;;;;;;;;5037050;28;20470;-74
2021/12/13 04:26:18;;;;;;;14.70;11.38;;;;;;;;;;5037345;28;20036;-73
2021/12/13 04:28:45;;;;;;;9.43;7.30;;;;;;;;;;5034886;28;20033;-74
2021/12/13 04:31:12;;;;;;;7.90;6.20;;;;;;;;;;5035748;28;20403;-73
2021/12/13 04:33:40;;;;;;;6.05;4.50;;;;;;;;;;5036695;28;20472;-75
2021/12/13 04:36:11;;;;;;;8.93;6.93;;;;;;;;;;5037208;28;20025;-75
2021/12/13 04:38:50;;;;;;;15.75;8.43;;;;;;;;;;5036264;28;20028;-74
2021/12/13 04:41:27;;;;;;;20.70;13.68;;;;;;;;;;5036418;28;20021;-74
2021/12/13 04:43:57;;;;;;;17.08;13.48;;;;;;;;;;5018014;28;20033;-75
2021/12/13 04:46:25;;;;;;;26.40;16.42;;;;;;;;;;5036709;28;20029;-74
2021/12/13 04:48:53;;;;;;;13.38;8.85;;;;;;;;;;5018285;28;20399;-74
2021/12/13 04:51:19;;;;;;;5.85;4.40;;;;;;;;;;5036850;28;20111;-73
2021/12/13 04:53:46;;;;;;;15.80;12.57;;;;;;;;;;5036616;28;20024;-73
2021/12/13 04:56:15;;;;;;;10.73;8.35;;;;;;;;;;5017580;28;20031;-74
2021/12/13 04:58:42;;;;;;;6.22;5.45;;;;;;;;;;5054561;28;20045;-73
2021/12/13 05:01:09;;;;;;;10.65;7.32;;;;;;;;;;5055413;28;20033;-74
2021/12/13 05:03:37;;;;;;;21.60;9.45;;;;;;;;;;5055580;28;20024;-75
2021/12/13 05:06:06;;;;;;;24.92;12.48;;;;;;;;;;5056038;28;20060;-73
2021/12/13 05:08:32;;;;;;;;;;;;;;;;;;5056102;28;20016;-74
2021/12/13 05:11:01;;;;;;;6.93;4.90;;;;;;;;;;5056103;28;19912;-73
2021/12/13 05:13:28;;;;;;;10.90;7.53;;;;;;;;;;5055276;28;20059;-74
2021/12/13 05:15:58;;;;;;;17.17;11.50;;;;;;;;;;5055213;28;20107;-72
2021/12/13 05:18:31;;;;;;;7.40;4.88;;;;;;;;;;5055911;28;20017;-73
2021/12/13 05:21:08;;;;;;;6.78;4.85;;;;;;;;;;5055277;28;20036;-75
2021/12/13 05:23:38;;;;;;;7.80;5.60;;;;;;;;;;5055447;28;20024;-73
2021/12/13 05:26:06;;;;;;;8.82;6.15;;;;;;;;;;5054770;28;20028;-73
2021/12/13 05:28:52;;;;;;;25.58;14.02;;;;;;;;;;5055669;28;20100;-74
2021/12/13 05:31:21;;;;;;;19.67;12.02;;;;;;;;;;5055447;28;20055;-73
2021/12/13 05:33:49;;;;;;;12.93;7.85;;;;;;;;;;5055034;28;20029;-74
2021/12/13 05:36:21;;;;;;;22.77;15.88;;;;;;;;;;5055348;28;20020;-74
2021/12/13 05:38:48;;;;;;;31.25;18.88;;;;;;;;;;5055541;28;20375;-72
2021/12/13 05:41:24;;;;;;;15.73;9.45;;;;;;;;;;5054548;28;20111;-73
2021/12/13 05:43:52;;;;;;;19.67;11.35;;;;;;;;;;5055904;28;20012;-73
2021/12/13 05:46:20;;;;;;;17.15;10.52;;;;;;;;;;5055706;28;20020;-73
2021/12/13 05:48:51;;;;;;;12.60;7.80;;;;;;;;;;5055914;28;20029;-73
2021/12/13 05:51:22;;;;;;;13.77;10.15;;;;;;;;;;5055985;28;20020;-73
2021/12/13 05:53:52;;;;;;;9.98;7.50;;;;;;;;;;5055716;28;20024;-73
2021/12/13 05:56:18;;;;;;;22.45;13.27;;;;;;;;;;5055298;28;20017;-73
2021/12/13 05:59:10;;;;;;;11.90;8.18;;;;;;;;;;5055443;28;20071;-74
2021/12/13 06:01:50;;;;;;;33.08;17.23;;;;;;;;;;5030380;28;20044;-73
2021/12/13 06:04:34;;;;;;;14.73;9.10;;;;;;;;;;5055635;28;20020;-74
2021/12/13 06:06:59;;;;;;;27.48;17.00;;;;;;;;;;5054174;28;20547;-74
2021/12/13 06:09:40;;;;;;;26.75;18.60;;;;;;;;;;5054122;28;20025;-74
2021/12/13 06:12:07;;;;;;;26.58;17.75;;;;;;;;;;5053169;28;20728;-74
2021/12/13 06:14:33;;;;;;;48.80;24.40;;;;;;;;;;5056454;28;20066;-76
2021/12/13 06:17:05;;;;;;;37.40;18.55;;;;;;;;;;5058328;28;20020;-75
2021/12/13 06:19:33;;;;;;;20.58;14.35;;;;;;;;;;5058481;28;20020;-74
2021/12/13 06:22:14;;;;;;;21.92;15.90;;;;;;;;;;5056787;28;20029;-73
2021/12/13 06:24:44;;;;;;;15.35;10.55;;;;;;;;;;5059585;28;20020;-75
2021/12/13 06:27:10;;;;;;;15.70;12.80;;;;;;;;;;5054413;28;20028;-75
2021/12/13 06:29:47;;;;;;;20.25;13.73;;;;;;;;;;5037732;28;20082;-75
2021/12/13 06:32:23;;;;;;;22.40;14.90;;;;;;;;;;5021474;28;20049;-76
2021/12/13 06:34:49;;;;;;;54.88;32.85;;;;;;;;;;5039075;28;20036;-75
2021/12/13 06:37:21;;;;;;;102.72;60.25;;;;;;;;;;5038317;28;20025;-74
2021/12/13 06:39:47;;;;;;;103.30;60.78;;;;;;;;;;5038645;28;20039;-76
2021/12/13 06:42:14;;;;;;;75.57;47.90;;;;;;;;;;5019989;28;20459;-75
2021/12/13 06:44:45;;;;;;;48.15;31.98;;;;;;;;;;5038152;28;20025;-75
2021/12/13 06:47:18;;;;;;;27.42;21.52;;;;;;;;;;5021153;28;20090;-74
2021/12/13 06:49:52;;;;;;;16.02;12.90;;;;;;;;;;5038708;28;20024;-74
2021/12/13 06:52:38;;;;;;;13.18;10.57;;;;;;;;;;5037493;28;20419;-75
2021/12/13 06:55:04;;;;;;;19.20;15.50;;;;;;;;;;5038724;28;20036;-76
2021/12/13 06:57:34;;;;;;;19.10;12.88;;;;;;;;;;5046590;28;20048;-74
2021/12/13 07:00:18;;;;;;;29.35;17.13;;;;;;;;;;5057929;28;20025;-75
2021/12/13 07:02:49;;;;;;;20.35;13.48;;;;;;;;;;5057706;28;20016;-74
2021/12/13 07:05:14;;;;;;;27.85;17.10;;;;;;;;;;5057899;28;20021;-74
2021/12/13 07:07:48;;;;;;;49.13;28.42;;;;;;;;;;5057944;28;20031;-74
2021/12/13 07:10:15;;;;;;;46.33;26.38;;;;;;;;;;5058687;28;20035;-76
2021/12/13 07:12:52;;;;;;;31.05;17.42;;;;;;;;;;5043057;28;20123;-75
2021/12/13 07:15:23;;;;;;;54.15;29.02;;;;;;;;;;5036035;28;20081;-75
2021/12/13 07:17:59;;;;;;;24.30;13.77;;;;;;;;;;5037179;28;20023;-74
2021/12/13 07:20:25;;;;;;;8.85;6.22;;;;;;;;;;5036228;28;20017;-75
2021/12/13 07:22:56;;;;;;;24.38;13.48;;;;;;;;;;5037525;28;20095;-77
2021/12/13 07:25:22;;;;;;;21.83;12.02;;;;;;;;;;5036539;28;20031;-75
2021/12/13 07:27:49;;;;;;;16.52;9.35;;;;;;;;;;5037389;28;20025;-74
2021/12/13 07:30:17;;;;;;;21.45;13.88;;;;;;;;;;5038323;28;20025;-74
2021/12/13 07:32:47;;;;;;;20.00;12.05;;;;;;;;;;5037089;28;20033;-76
2021/12/13 07:35:13;;;;;;;21.75;12.45;;;;;;;;;;5043355;28;20452;-76
2021/12/13 07:37:40;;;;;;;21.25;13.68;;;;;;;;;;5057680;28;20030;-73
2021/12/13 07:40:18;;;;;;;15.30;9.90;;;;;;;;;;5058520;28;20027;-75
2021/12/13 07:43:09;;;;;;;23.90;15.88;;;;;;;;;;5038818;28;20130;-75
2021/12/13 07:45:35;;;;;;;17.20;13.15;;;;;;;;;;5054242;28;20032;-76
2021/12/13 07:48:04;;;;;;;32.03;20.55;;;;;;;;;;5039104;28;20547;-74
2021/12/13 07:50:31;;;;;;;35.38;23.92;;;;;;;;;;5038849;28;20024;-76
2021/12/13 07:52:58;;;;;;;25.38;17.00;;;;;;;;;;5056484;28;20119;-77
2021/12/13 07:55:26;;;;;;;19.65;14.02;;;;;;;;;;5039203;28;20035;-78
2021/12/13 07:57:53;;;;;;;22.58;14.32;;;;;;;;;;5035419;28;20049;-75
2021/12/13 08:00:21;;;;;;;50.83;28.63;;;;;;;;;;5035316;28;20025;-76
2021/12/13 08:03:01;;;;;;;41.80;24.90;;;;;;;;;;5037608;28;20021;-76
2021/12/13 08:05:28;;;;;;;39.63;24.02;;;;;;;;;;5037627;28;20474;-76
2021/12/13 08:07:55;;;;;;;29.30;18.27;;;;;;;;;;5035375;28;20048;-74
2021/12/13 08:10:25;;;;;;;48.47;32.22;;;;;;;;;;5037073;28;20020;-75
2021/12/13 08:12:50;;;;;;;;;;;;;;;;;;5036770;28;20082;-75
2021/12/13 08:15:15;;;;;;;26.60;18.00;;;;;;;;;;5051287;28;19928;-75
2021/12/13 08:17:55;;;;;;;21.95;15.38;;;;;;;;;;5035287;28;20012;-74
2021/12/13 08:20:20;;;;;;;34.17;24.45;;;;;;;;;;5033484;28;20024;-75
2021/12/13 08:22:47;;;;;;;32.55;22.00;;;;;;;;;;5034808;28;20025;-74
2021/12/13 08:25:18;;;;;;;44.05;29.90;;;;;;;;;;5050148;28;20021;-76
2021/12/13 08:27:48;;;;;;;153.30;81.65;;;;;;;;;;5034102;28;20387;-77
2021/12/13 08:30:16;;;;;;;28.33;15.77;;;;;;;;;;5035113;28;20032;-76
2021/12/13 08:32:59;;;;;;;21.13;15.88;;;;;;;;;;5035641;28;20029;-75
2021/12/13 08:35:25;;;;;;;45.65;33.70;;;;;;;;;;5035629;28;20021;-75
2021/12/13 08:37:58;;;;;;;43.80;33.03;;;;;;;;;;5034899;28;20435;-76
2021/12/13 08:40:26;;;;;;;31.85;23.88;;;;;;;;;;5033605;28;20040;-76
2021/12/13 08:42:51;;;;;;;22.00;14.98;;;;;;;;;;5036307;28;20029;-77
2021/12/13 08:45:31;;;;;;;44.58;32.17;;;;;;;;;;5034559;28;20017;-75
2021/12/13 08:48:02;;;;;;;33.22;21.50;;;;;;;;;;5036278;28;20021;-76
2021/12/13 08:50:48;;;;;;;47.95;27.05;;;;;;;;;;5034261;28;20540;-76
2021/12/13 08:53:21;;;;;;;16.98;9.93;;;;;;;;;;5035527;28;20056;-75
2021/12/13 08:55:55;;;;;;;13.48;9.15;;;;;;;;;;5034429;28;20025;-76
2021/12/13 08:58:21;;;;;;;89.85;41.92;;;;;;;;;;5037210;28;20052;-76
2021/12/13 09:00:49;;;;;;;42.33;26.58;;;;;;;;;;5056521;28;20043;-74
2021/12/13 09:03:22;;;;;;;37.90;24.55;;;;;;;;;;5053604;28;20027;-75
2021/12/13 09:05:57;;;;;;;53.22;34.03;;;;;;;;;;5037200;28;20468;-76
2021/12/13 09:08:25;;;;;;;21.27;15.90;;;;;;;;;;5037194;28;20378;-75
2021/12/13 09:10:59;;;;;;;18.42;12.55;;;;;;;;;;5055879;28;20033;-74
2021/12/13 09:13:43;;;;;;;15.98;10.25;;;;;;;;;;5055228;28;20031;-76
2021/12/13 09:16:09;;;;;;;15.63;11.00;;;;;;;;;;5038622;28;20376;-74
2021/12/13 09:18:35;;;;;;;17.65;11.13;;;;;;;;;;5037318;28;20028;-76
2021/12/13 09:21:01;;;;;;;13.98;10.50;;;;;;;;;;5037344;28;20040;-75
2021/12/13 09:23:28;;;;;;;15.18;11.00;;;;;;;;;;5054466;28;20434;-75
2021/12/13 09:26:02;;;;;;;18.10;12.98;;;;;;;;;;5056664;28;20025;-74
2021/12/13 09:28:31;;;;;;;19.70;14.15;;;;;;;;;;5055613;28;20031;-75
2021/12/13 09:30:57;;;;;;;;;;;;;;;;;;5055556;28;20025;-76
2021/12/13 09:33:24;;;;;;;37.27;20.90;;;;;;;;;;5055078;28;19912;-76
2021/12/13 09:35:52;;;;;;;32.42;19.13;;;;;;;;;;5037277;28;20289;-76
2021/12/13 09:38:17;;;;;;;25.25;15.15;;;;;;;;;;5054907;28;20024;-74
2021/12/13 09:40:42;;;;;;;31.15;19.33;;;;;;;;;;5052939;28;20028;-75
2021/12/13 09:43:08;;;;;;;25.17;15.52;;;;;;;;;;5044528;28;20608;-74
2021/12/13 09:45:38;;;;;;;18.77;11.85;;;;;;;;;;5034014;28;20056;-74
2021/12/13 09:48:15;;;;;;;38.63;21.55;;;;;;;;;;5034231;28;20036;-73
2021/12/13 09:50:41;;;;;;;74.25;34.17;;;;;;;;;;5010651;28;20037;-75
2021/12/13 09:53:08;;;;;;;59.80;26.65;;;;;;;;;;5035359;28;20119;-72
2021/12/13 09:55:46;;;;;;;30.27;15.00;;;;;;;;;;5035104;28;20082;-76
2021/12/13 09:58:16;;;;;;;40.05;19.58;;;;;;;;;;5049068;28;20048;-75
2021/12/13 10:01:00;;;;;;;52.75;25.58;;;;;;;;;;5038194;28;20050;-75
2021/12/13 10:03:28;;;;;;;52.15;30.95;;;;;;;;;;5054781;28;20016;-74
2021/12/13 10:05:56;;;;;;;45.13;27.00;;;;;;;;;;5037177;28;20035;-73
2021/12/13 10:08:24;;;;;;;44.65;26.50;;;;;;;;;;5036783;28;20423;-75
2021/12/13 10:10:51;;;;;;;19.27;12.52;;;;;;;;;;5036488;28;20594;-74
2021/12/13 10:13:21;;;;;;;17.50;12.27;;;;;;;;;;5036665;28;20024;-73
2021/12/13 10:15:49;;;;;;;20.77;15.77;;;;;;;;;;5036631;28;20074;-74
2021/12/13 10:18:23;;;;;;;58.90;41.58;;;;;;;;;;5036449;28;20032;-74
2021/12/13 10:20:53;;;;;;;47.10;34.00;;;;;;;;;;5054661;28;20021;-74
2021/12/13 10:23:21;;;;;;;43.72;29.27;;;;;;;;;;5055080;28;20043;-74
2021/12/13 10:25:49;;;;;;;29.65;19.35;;;;;;;;;;5045117;28;20025;-74
2021/12/13 10:28:16;;;;;;;55.15;32.28;;;;;;;;;;5034998;28;20464;-73
2021/12/13 10:30:44;;;;;;;20.55;11.45;;;;;;;;;;5034590;28;20030;-74
2021/12/13 10:33:10;;;;;;;23.63;15.02;;;;;;;;;;5034928;28;20039;-72
2021/12/13 10:35:39;;;;;;;18.00;11.00;;;;;;;;;;5035620;28;20508;-73
2021/12/13 10:38:07;;;;;;;32.67;20.67;;;;;;;;;;5035593;28;20445;-74
2021/12/13 10:40:42;;;;;;;40.63;23.67;;;;;;;;;;5034382;28;20029;-74
2021/12/13 10:43:07;;;;;;;61.28;36.70;;;;;;;;;;5034404;28;20032;-72
2021/12/13 10:45:39;;;;;;;51.58;31.40;;;;;;;;;;5034421;28;20020;-74
2021/12/13 10:48:08;;;;;;;62.17;42.00;;;;;;;;;;5034907;28;20017;-74
2021/12/13 10:50:55;;;;;;;88.45;57.75;;;;;;;;;;5016698;28;20186;-74
2021/12/13 10:53:21;;;;;;;50.15;31.73;;;;;;;;;;5035547;28;20033;-73
2021/12/13 10:55:54;;;;;;;92.13;60.63;;;;;;;;;;5034754;28;20518;-72
2021/12/13 11:01:28;;;;;;;68.45;43.03;;;;;;;;;;5056993;28;20558;-73
2021/12/13 11:03:55;;;;;;;53.20;33.53;;;;;;;;;;5058063;28;20087;-72
2021/12/13 11:06:21;;;;;;;47.67;29.63;;;;;;;;;;5058073;28;20048;-73
2021/12/13 11:08:46;;;;;;;53.95;33.33;;;;;;;;;;5057395;28;20105;-72
2021/12/13 11:11:21;;;;;;;59.03;31.77;;;;;;;;;;5047361;28;20499;-72
2021/12/13 11:13:49;;;;;;;52.33;29.67;;;;;;;;;;5034724;28;20013;-72
2021/12/13 11:16:17;;;;;;;90.18;53.95;;;;;;;;;;5037066;28;20028;-72
2021/12/13 11:18:45;;;;;;;56.28;34.00;;;;;;;;;;5043823;28;20492;-72
2021/12/13 11:21:19;;;;;;;32.90;22.83;;;;;;;;;;5034451;28;20491;-71
2021/12/13 11:23:44;;;;;;;23.52;17.48;;;;;;;;;;5037843;28;20025;-73
2021/12/13 11:26:11;;;;;;;18.77;13.60;;;;;;;;;;5037834;28;20024;-71
2021/12/13 11:28:37;;;;;;;22.75;17.25;;;;;;;;;;5034406;28;20096;-73
2021/12/13 11:31:28;;;;;;;34.22;23.30;;;;;;;;;;5036803;28;20104;-73
2021/12/13 11:34:00;;;;;;;31.90;21.20;;;;;;;;;;5032421;28;20087;-72
2021/12/13 11:36:48;;;;;;;30.40;19.80;;;;;;;;;;5036597;28;20369;-73
2021/12/13 11:39:32;;;;;;;30.55;20.00;;;;;;;;;;5035406;28;20646;-73
2021/12/13 11:42:17;;;;;;;32.33;19.75;;;;;;;;;;5028985;28;20025;-72
2021/12/13 11:44:45;;;;;;;30.30;19.40;;;;;;;;;;5019168;28;20020;-72
2021/12/13 11:47:13;;;;;;;36.58;26.83;;;;;;;;;;5037663;28;20025;-72
2021/12/13 11:49:48;;;;;;;41.13;28.23;;;;;;;;;;5036799;28;20025;-75
2021/12/13 11:52:13;;;;;;;24.10;15.02;;;;;;;;;;5037076;28;20035;-71
2021/12/13 11:54:59;;;;;;;15.30;12.30;;;;;;;;;;5037470;28;20028;-73
2021/12/13 11:57:43;;;;;;;19.25;12.60;;;;;;;;;;5045192;28;20789;-71
2021/12/13 12:00:09;;;;;;;24.67;16.92;;;;;;;;;;5020444;28;20076;-73
2021/12/13 12:02:53;;;;;;;27.08;19.88;;;;;;;;;;5015785;28;20033;-72
2021/12/13 12:05:18;;;;;;;31.58;21.35;;;;;;;;;;5016364;28;20548;-73
2021/12/13 12:07:43;;;;;;;33.67;20.52;;;;;;;;;;5017201;28;20052;-71
2021/12/13 12:10:15;;;;;;;69.97;36.35;;;;;;;;;;5017075;28;20044;-72
2021/12/13 12:12:43;;;;;;;49.30;27.08;;;;;;;;;;5016343;28;20124;-71
2021/12/13 12:15:09;;;;;;;38.72;23.00;;;;;;;;;;5016905;28;20492;-71
2021/12/13 12:17:35;;;;;;;47.53;29.85;;;;;;;;;;5017205;28;20024;-72
2021/12/13 12:20:02;;;;;;;13.15;8.65;;;;;;;;;;5017793;28;20021;-72
2021/12/13 12:22:31;;;;;;;36.00;24.92;;;;;;;;;;5016830;28;20075;-72
2021/12/13 12:24:57;;;;;;;40.27;26.27;;;;;;;;;;5017238;28;20025;-72
2021/12/13 12:27:27;;;;;;;36.03;21.80;;;;;;;;;;5023909;28;20605;-73
2021/12/13 12:29:52;;;;;;;;;;;;;;;;;;5036430;28;20028;-73
2021/12/13 12:32:23;;;;;;;33.03;16.87;;;;;;;;;;5035362;28;19909;-72
2021/12/13 12:34:49;;;;;;;29.88;14.38;;;;;;;;;;5037797;28;20020;-72
2021/12/13 12:37:34;;;;;;;15.63;11.70;;;;;;;;;;5036610;28;20024;-72
2021/12/13 12:40:08;;;;;;;33.88;25.08;;;;;;;;;;5036582;28;20052;-71
2021/12/13 12:42:44;;;;;;;26.73;20.85;;;;;;;;;;5037474;28;20045;-72
2021/12/13 12:45:12;;;;;;;16.83;11.75;;;;;;;;;;5036384;28;20456;-73
2021/12/13 12:47:37;;;;;;;21.50;15.13;;;;;;;;;;5036254;28;20033;-72
2021/12/13 12:50:17;;;;;;;18.85;12.63;;;;;;;;;;5035838;28;20075;-71
2021/12/13 12:52:49;;;;;;;54.20;26.13;;;;;;;;;;5036481;28;20495;-71
2021/12/13 12:55:17;;;;;;;48.20;23.27;;;;;;;;;;5036302;28;20596;-73
2021/12/13 12:57:42;;;;;;;109.18;56.78;;;;;;;;;;5035444;28;20430;-74
2021/12/13 13:00:08;;;;;;;75.80;41.97;;;;;;;;;;5055271;28;20035;-72
2021/12/13 13:02:34;;;;;;;101.40;68.10;;;;;;;;;;5055686;28;20090;-73
2021/12/13 13:05:03;;;;;;;73.10;44.42;;;;;;;;;;5056808;28;20024;-71
2021/12/13 13:07:30;;;;;;;133.55;78.22;;;;;;;;;;5055578;28;20026;-72
2021/12/13 13:09:58;;;;;;;62.45;44.10;;;;;;;;;;5056421;28;20028;-74
2021/12/13 13:12:26;;;;;;;74.43;46.13;;;;;;;;;;5056136;28;20025;-72
2021/12/13 13:14:54;;;;;;;50.90;34.35;;;;;;;;;;5055343;28;20078;-72
2021/12/13 13:17:21;;;;;;;13.82;10.88;;;;;;;;;;5035361;28;20060;-73
2021/12/13 13:19:47;;;;;;;14.65;9.20;;;;;;;;;;5043440;28;20028;-73
2021/12/13 13:22:14;;;;;;;19.15;12.73;;;;;;;;;;5053339;28;20154;-72
2021/12/13 13:24:41;;;;;;;19.25;11.90;;;;;;;;;;5055579;28;20107;-71
2021/12/13 13:27:07;;;;;;;35.85;18.08;;;;;;;;;;5055472;28;20066;-71
2021/12/13 13:29:34;;;;;;;36.40;21.55;;;;;;;;;;5034564;28;20013;-73
2021/12/13 13:32:00;;;;;;;44.35;26.15;;;;;;;;;;5035285;28;20024;-72
2021/12/13 13:34:51;;;;;;;29.65;19.58;;;;;;;;;;5035823;28;20031;-71
2021/12/13 13:37:36;;;;;;;42.45;26.35;;;;;;;;;;5030502;28;20123;-72
2021/12/13 13:40:07;;;;;;;62.00;31.77;;;;;;;;;;5035737;28;20060;-71
2021/12/13 13:42:34;;;;;;;63.45;26.77;;;;;;;;;;5035440;28;20029;-72
2021/12/13 13:45:04;;;;;;;64.88;30.00;;;;;;;;;;5034280;28;20028;-71
2021/12/13 13:47:31;;;;;;;29.90;18.33;;;;;;;;;;5034984;28;20043;-71
2021/12/13 13:49:58;;;;;;;25.50;16.88;;;;;;;;;;5033796;28;20025;-72
2021/12/13 13:52:25;;;;;;;22.30;14.98;;;;;;;;;;5036053;28;20064;-71
2021/12/13 13:54:53;;;;;;;16.75;12.10;;;;;;;;;;5034019;28;20045;-72
2021/12/13 13:57:23;;;;;;;42.75;24.27;;;;;;;;;;5037421;28;20071;-72
2021/12/13 13:59:49;;;;;;;13.88;8.85;;;;;;;;;;5043495;28;20082;-71
2021/12/13 14:02:16;;;;;;;27.70;15.00;;;;;;;;;;5042531;28;20033;-71
2021/12/13 14:04:43;;;;;;;23.55;13.98;;;;;;;;;;5039651;28;20535;-71
2021/12/13 14:07:21;;;;;;;29.95;17.40;;;;;;;;;;5043916;28;20021;-72
2021/12/13 14:09:48;;;;;;;15.25;12.18;;;;;;;;;;5039644;28;20051;-72
2021/12/13 14:12:22;;;;;;;11.13;8.38;;;;;;;;;;5039524;28;20025;-72
2021/12/13 14:14:49;;;;;;;42.10;27.15;;;;;;;;;;5039810;28;20082;-71
2021/12/13 14:17:29;;;;;;;22.65;13.77;;;;;;;;;;5036537;28;20021;-72
2021/12/13 14:19:54;;;;;;;27.15;15.20;;;;;;;;;;5034718;28;20025;-72
2021/12/13 14:22:28;;;;;;;43.28;23.30;;;;;;;;;;5039239;28;20117;-72
2021/12/13 14:24:53;;;;;;;58.97;30.45;;;;;;;;;;5054330;28;20016;-73
2021/12/13 14:27:18;;;;;;;44.95;23.60;;;;;;;;;;5043042;28;20518;-73
2021/12/13 14:29:45;;;;;;;45.95;23.75;;;;;;;;;;5018876;28;20529;-74
2021/12/13 14:32:11;;;;;;;30.77;18.73;;;;;;;;;;5054649;28;20024;-73
2021/12/13 14:34:37;;;;;;;26.20;16.30;;;;;;;;;;5038652;28;20467;-72
2021/12/13 14:37:02;;;;;;;26.75;16.77;;;;;;;;;;5058215;28;20021;-74
2021/12/13 14:39:33;;;;;;;27.52;18.05;;;;;;;;;;5052132;28;20033;-71
2021/12/13 14:42:00;;;;;;;24.60;16.70;;;;;;;;;;5043003;28;20031;-72
2021/12/13 14:44:27;;;;;;;49.63;26.83;;;;;;;;;;5029964;28;20992;-73
2021/12/13 14:46:56;;;;;;;17.00;11.60;;;;;;;;;;5046982;28;20048;-73
2021/12/13 14:49:23;;;;;;;33.22;18.63;;;;;;;;;;5043782;28;20064;-72
2021/12/13 14:51:58;;;;;;;41.38;22.38;;;;;;;;;;5045438;28;20139;-72